KRFD/RFD METAR and TAF weather

Enter ICAO airport designator
Station Type Date Time Source
KRFD METAR 2022/08/12 14:54 UTC NOAA

KRFD 121454Z VRB05KT 10SM OVC200 21/14 A3030 RMK AO2 SLP259 T02060139 53013


Station Type Date Time Source
KRFD Decoded METAR 2022/08/12 14:54 UTC NOAA

GREATER ROCKFORD AIRPORT, IL, United States (KRFD) 42-12N 89-06W 221M
Aug 12, 2022 - 10:54 AM EDT / 2022.08.12 1454 UTC
Wind: Variable at 6 MPH (5 KT):0
Visibility: 10 mile(s):0
Sky conditions: overcast
Temperature: 69.1 F (20.6 C)
Dew Point: 57.0 F (13.9 C)
Relative Humidity: 65%
Pressure (altimeter): 30.3 in. Hg (1026 hPa)
Pressure tendency: 0.04 inches (1.3 hPa) higher than three hours ago
ob: KRFD 121454Z VRB05KT 10SM OVC200 21/14 A3030 RMK AO2 SLP259 T02060139 53013
cycle: 15

Station Type Date Time Source
KRFD TAF 2022/08/12 15:09 UTC NOAA

TAF KRFD 121505Z 1215/1312 08005KT P6SM SCT100 BKN200
TEMPO 1218/1222 -SHRA BKN100
FM130600 17006KT P6SM BKN150

Example: see airport list